sensor_id;sensor_type;location;lat;lon;timestamp;pressure;altitude;pressure_sealevel;temperature;humidity
26657;BME280;14279;50.010;8.260;2023-03-04T00:01:46;101257.78;;;3.34;70.33
26657;BME280;14279;50.010;8.260;2023-03-04T00:04:12;101259.50;;;3.18;70.15
26657;BME280;14279;50.010;8.260;2023-03-04T00:06:37;101256.91;;;3.32;70.07
26657;BME280;14279;50.010;8.260;2023-03-04T00:09:02;101256.06;;;3.27;70.12
26657;BME280;14279;50.010;8.260;2023-03-04T00:11:29;101264.63;;;3.26;69.49
26657;BME280;14279;50.010;8.260;2023-03-04T00:13:55;101256.94;;;3.12;70.51
26657;BME280;14279;50.010;8.260;2023-03-04T00:16:20;101263.78;;;3.22;69.92
26657;BME280;14279;50.010;8.260;2023-03-04T00:18:45;101266.34;;;3.31;69.92
26657;BME280;14279;50.010;8.260;2023-03-04T00:21:10;101266.28;;;3.59;69.61
26657;BME280;14279;50.010;8.260;2023-03-04T00:23:36;101267.13;;;3.66;69.60
26657;BME280;14279;50.010;8.260;2023-03-04T00:26:01;101271.38;;;3.81;68.81
26657;BME280;14279;50.010;8.260;2023-03-04T00:28:26;101268.81;;;3.83;68.73
26657;BME280;14279;50.010;8.260;2023-03-04T00:30:52;101272.22;;;3.80;68.97
26657;BME280;14279;50.010;8.260;2023-03-04T00:33:17;101266.28;;;3.63;68.53
26657;BME280;14279;50.010;8.260;2023-03-04T00:35:42;101257.69;;;3.60;68.96
26657;BME280;14279;50.010;8.260;2023-03-04T00:38:08;101262.91;;;3.39;69.57
26657;BME280;14279;50.010;8.260;2023-03-04T00:40:33;101262.91;;;3.29;69.70
26657;BME280;14279;50.010;8.260;2023-03-04T00:42:58;101263.78;;;3.18;69.34
26657;BME280;14279;50.010;8.260;2023-03-04T00:45:24;101262.06;;;3.15;69.84
26657;BME280;14279;50.010;8.260;2023-03-04T00:47:49;101256.94;;;3.09;70.11
26657;BME280;14279;50.010;8.260;2023-03-04T00:50:14;101253.47;;;3.35;69.27
26657;BME280;14279;50.010;8.260;2023-03-04T00:52:40;101258.66;;;3.22;69.34
26657;BME280;14279;50.010;8.260;2023-03-04T00:55:06;101256.06;;;3.24;69.80
26657;BME280;14279;50.010;8.260;2023-03-04T00:57:31;101256.03;;;3.41;69.72
26657;BME280;14279;50.010;8.260;2023-03-04T00:59:56;101253.44;;;3.52;69.85
26657;BME280;14279;50.010;8.260;2023-03-04T01:02:22;101254.28;;;3.57;69.73
26657;BME280;14279;50.010;8.260;2023-03-04T01:04:47;101246.53;;;3.63;69.91
26657;BME280;14279;50.010;8.260;2023-03-04T01:07:12;101250.03;;;3.42;70.32
26657;BME280;14279;50.010;8.260;2023-03-04T01:09:37;101242.31;;;3.34;69.93
26657;BME280;14279;50.010;8.260;2023-03-04T01:12:03;101246.59;;;3.34;70.18
26657;BME280;14279;50.010;8.260;2023-03-04T01:14:28;101242.34;;;3.28;69.88
26657;BME280;14279;50.010;8.260;2023-03-04T01:16:53;101243.19;;;3.04;70.43
26657;BME280;14279;50.010;8.260;2023-03-04T01:19:19;101243.22;;;2.88;70.24
26657;BME280;14279;50.010;8.260;2023-03-04T01:21:44;101244.06;;;2.92;70.52
26657;BME280;14279;50.010;8.260;2023-03-04T01:24:10;101240.66;;;2.88;70.34
26657;BME280;14279;50.010;8.260;2023-03-04T01:26:35;101241.53;;;2.75;71.36
26657;BME280;14279;50.010;8.260;2023-03-04T01:29:01;101235.50;;;2.85;70.74
26657;BME280;14279;50.010;8.260;2023-03-04T01:31:26;101238.06;;;2.71;71.48
26657;BME280;14279;50.010;8.260;2023-03-04T01:33:51;101232.06;;;2.58;71.91
26657;BME280;14279;50.010;8.260;2023-03-04T01:36:17;101230.34;;;2.54;71.61
26657;BME280;14279;50.010;8.260;2023-03-04T01:38:42;101223.50;;;2.54;71.19
26657;BME280;14279;50.010;8.260;2023-03-04T01:41:07;101224.34;;;2.57;70.82
26657;BME280;14279;50.010;8.260;2023-03-04T01:43:34;101214.09;;;2.70;70.98
26657;BME280;14279;50.010;8.260;2023-03-04T01:46:00;101218.38;;;2.72;71.00
26657;BME280;14279;50.010;8.260;2023-03-04T01:48:32;101214.94;;;2.69;70.77
26657;BME280;14279;50.010;8.260;2023-03-04T01:51:04;101208.06;;;2.78;70.52
26657;BME280;14279;50.010;8.260;2023-03-04T01:53:31;101205.50;;;2.81;70.04
26657;BME280;14279;50.010;8.260;2023-03-04T01:56:00;101203.81;;;2.84;69.86
26657;BME280;14279;50.010;8.260;2023-03-04T01:58:31;101197.78;;;2.81;69.85
26657;BME280;14279;50.010;8.260;2023-03-04T02:00:56;101201.22;;;2.86;70.00
26657;BME280;14279;50.010;8.260;2023-03-04T02:03:22;101201.22;;;2.95;69.75
26657;BME280;14279;50.010;8.260;2023-03-04T02:05:49;101202.06;;;3.00;69.87
26657;BME280;14279;50.010;8.260;2023-03-04T02:08:17;101195.22;;;2.93;69.46
26657;BME280;14279;50.010;8.260;2023-03-04T02:10:43;101195.22;;;2.96;69.69
26657;BME280;14279;50.010;8.260;2023-03-04T02:13:09;101195.19;;;3.09;69.29
26657;BME280;14279;50.010;8.260;2023-03-04T02:15:35;101196.91;;;3.05;69.67
26657;BME280;14279;50.010;8.260;2023-03-04T02:18:01;101185.75;;;3.06;69.12
26657;BME280;14279;50.010;8.260;2023-03-04T02:23:08;101184.94;;;2.79;69.76
26657;BME280;14279;50.010;8.260;2023-03-04T02:25:45;101183.22;;;2.64;70.11
26657;BME280;14279;50.010;8.260;2023-03-04T02:28:11;101184.94;;;2.59;70.14
26657;BME280;14279;50.010;8.260;2023-03-04T02:30:37;101185.81;;;2.52;70.15
26657;BME280;14279;50.010;8.260;2023-03-04T02:33:02;101183.22;;;2.39;70.59
26657;BME280;14279;50.010;8.260;2023-03-04T02:35:28;101181.50;;;2.23;70.95
26657;BME280;14279;50.010;8.260;2023-03-04T02:37:53;101174.59;;;2.13;71.57
26657;BME280;14279;50.010;8.260;2023-03-04T02:40:26;101179.72;;;1.99;71.19
26657;BME280;14279;50.010;8.260;2023-03-04T02:42:53;101164.31;;;2.09;71.49
26657;BME280;14279;50.010;8.260;2023-03-04T02:45:35;101176.34;;;2.12;71.22
26657;BME280;14279;50.010;8.260;2023-03-04T02:48:01;101167.75;;;1.99;71.46
26657;BME280;14279;50.010;8.260;2023-03-04T02:50:29;101168.56;;;1.97;71.69
26657;BME280;14279;50.010;8.260;2023-03-04T02:52:55;101168.63;;;2.17;70.97
26657;BME280;14279;50.010;8.260;2023-03-04T02:55:20;101170.34;;;2.18;71.26
26657;BME280;14279;50.010;8.260;2023-03-04T02:57:46;101162.66;;;2.29;70.61
26657;BME280;14279;50.010;8.260;2023-03-04T03:00:11;101161.81;;;2.28;70.11
26657;BME280;14279;50.010;8.260;2023-03-04T03:02:37;101164.34;;;2.34;70.20
26657;BME280;14279;50.010;8.260;2023-03-04T03:05:02;101164.34;;;2.31;70.08
26657;BME280;14279;50.010;8.260;2023-03-04T03:07:27;101164.38;;;2.48;70.02
26657;BME280;14279;50.010;8.260;2023-03-04T03:09:53;101168.66;;;2.48;69.54
26657;BME280;14279;50.010;8.260;2023-03-04T03:12:18;101163.50;;;2.63;69.56
26657;BME280;14279;50.010;8.260;2023-03-04T03:14:43;101162.66;;;2.43;69.94
26657;BME280;14279;50.010;8.260;2023-03-04T03:17:08;101165.22;;;2.39;69.92
26657;BME280;14279;50.010;8.260;2023-03-04T03:19:34;101160.09;;;2.53;69.47
26657;BME280;14279;50.010;8.260;2023-03-04T03:21:59;101161.81;;;2.44;69.56
26657;BME280;14279;50.010;8.260;2023-03-04T03:24:25;101153.19;;;2.07;71.14
26657;BME280;14279;50.010;8.260;2023-03-04T03:26:50;101154.91;;;2.12;70.86
26657;BME280;14279;50.010;8.260;2023-03-04T03:29:15;101160.09;;;2.49;70.14
26657;BME280;14279;50.010;8.260;2023-03-04T03:31:40;101168.66;;;2.49;70.56
26657;BME280;14279;50.010;8.260;2023-03-04T03:34:06;101157.50;;;2.50;69.68
26657;BME280;14279;50.010;8.260;2023-03-04T03:36:31;101162.66;;;2.58;69.57
26657;BME280;14279;50.010;8.260;2023-03-04T03:38:56;101164.34;;;2.67;69.16
26657;BME280;14279;50.010;8.260;2023-03-04T03:41:21;101157.50;;;2.58;68.84
26657;BME280;14279;50.010;8.260;2023-03-04T03:43:47;101158.38;;;2.40;69.20
26657;BME280;14279;50.010;8.260;2023-03-04T03:46:12;101160.94;;;2.55;69.65
26657;BME280;14279;50.010;8.260;2023-03-04T03:48:37;101163.53;;;2.73;69.48
26657;BME280;14279;50.010;8.260;2023-03-04T03:51:02;101158.38;;;2.77;68.91
26657;BME280;14279;50.010;8.260;2023-03-04T03:53:27;101153.22;;;2.82;68.86
26657;BME280;14279;50.010;8.260;2023-03-04T03:55:53;101156.63;;;2.84;68.22
26657;BME280;14279;50.010;8.260;2023-03-04T03:58:18;101151.44;;;3.06;68.22
26657;BME280;14279;50.010;8.260;2023-03-04T04:00:44;101147.16;;;3.14;67.31
26657;BME280;14279;50.010;8.260;2023-03-04T04:03:13;101145.38;;;3.31;67.02
26657;BME280;14279;50.010;8.260;2023-03-04T04:05:39;101153.16;;;3.22;67.52
26657;BME280;14279;50.010;8.260;2023-03-04T04:08:05;101153.09;;;3.35;66.51
26657;BME280;14279;50.010;8.260;2023-03-04T04:10:30;101153.97;;;3.32;66.38
26657;BME280;14279;50.010;8.260;2023-03-04T04:12:55;101147.09;;;3.31;67.22
26657;BME280;14279;50.010;8.260;2023-03-04T04:15:20;101153.97;;;3.35;66.95
26657;BME280;14279;50.010;8.260;2023-03-04T04:17:46;101152.31;;;3.11;67.44
26657;BME280;14279;50.010;8.260;2023-03-04T04:20:11;101153.13;;;3.24;67.23
26657;BME280;14279;50.010;8.260;2023-03-04T04:22:36;101150.56;;;3.21;66.99
26657;BME280;14279;50.010;8.260;2023-03-04T04:25:02;101152.25;;;3.31;67.01
26657;BME280;14279;50.010;8.260;2023-03-04T04:27:27;101149.69;;;3.26;67.28
26657;BME280;14279;50.010;8.260;2023-03-04T04:29:52;101150.50;;;3.39;67.32
26657;BME280;14279;50.010;8.260;2023-03-04T04:32:17;101151.38;;;3.40;67.07
26657;BME280;14279;50.010;8.260;2023-03-04T04:34:42;101150.47;;;3.52;66.29
26657;BME280;14279;50.010;8.260;2023-03-04T04:37:08;101147.03;;;3.43;66.80
26657;BME280;14279;50.010;8.260;2023-03-04T04:39:33;101148.72;;;3.55;66.50
26657;BME280;14279;50.010;8.260;2023-03-04T04:41:59;101142.69;;;3.59;66.88
26657;BME280;14279;50.010;8.260;2023-03-04T04:44:24;101149.56;;;3.60;66.24
26657;BME280;14279;50.010;8.260;2023-03-04T04:46:49;101144.38;;;3.70;66.83
26657;BME280;14279;50.010;8.260;2023-03-04T04:49:14;101140.91;;;3.72;66.75
26657;BME280;14279;50.010;8.260;2023-03-04T04:51:40;101138.31;;;3.77;66.16
26657;BME280;14279;50.010;8.260;2023-03-04T04:54:05;101139.94;;;3.97;65.85
26657;BME280;14279;50.010;8.260;2023-03-04T04:56:31;101133.81;;;4.10;65.03
26657;BME280;14279;50.010;8.260;2023-03-04T04:58:58;101137.25;;;4.12;64.75
26657;BME280;14279;50.010;8.260;2023-03-04T05:01:25;101136.38;;;4.16;64.97
26657;BME280;14279;50.010;8.260;2023-03-04T05:03:50;101130.41;;;4.08;64.60
26657;BME280;14279;50.010;8.260;2023-03-04T05:06:17;101139.81;;;4.14;64.74
26657;BME280;14279;50.010;8.260;2023-03-04T05:08:43;101129.34;;;4.34;64.38
26657;BME280;14279;50.010;8.260;2023-03-04T05:11:08;101130.22;;;4.33;64.43
26657;BME280;14279;50.010;8.260;2023-03-04T05:13:34;101126.78;;;4.31;64.45
26657;BME280;14279;50.010;8.260;2023-03-04T05:16:00;101129.31;;;4.35;63.74
26657;BME280;14279;50.010;8.260;2023-03-04T05:18:26;101137.06;;;4.37;64.09
26657;BME280;14279;50.010;8.260;2023-03-04T05:20:52;101132.25;;;3.87;65.32
26657;BME280;14279;50.010;8.260;2023-03-04T05:23:19;101135.75;;;3.79;65.83
26657;BME280;14279;50.010;8.260;2023-03-04T05:25:44;101125.50;;;3.68;66.42
26657;BME280;14279;50.010;8.260;2023-03-04T05:28:09;101133.91;;;3.99;65.72
26657;BME280;14279;50.010;8.260;2023-03-04T05:30:40;101139.13;;;3.85;66.28
26657;BME280;14279;50.010;8.260;2023-03-04T05:33:06;101128.56;;;4.26;65.63
26657;BME280;14279;50.010;8.260;2023-03-04T05:35:36;101134.66;;;4.15;65.28
26657;BME280;14279;50.010;8.260;2023-03-04T05:38:04;101134.69;;;4.09;65.40
26657;BME280;14279;50.010;8.260;2023-03-04T05:40:30;101134.56;;;4.29;65.28
26657;BME280;14279;50.010;8.260;2023-03-04T05:42:55;101125.91;;;4.33;66.17
26657;BME280;14279;50.010;8.260;2023-03-04T05:45:21;101128.41;;;4.46;65.70
26657;BME280;14279;50.010;8.260;2023-03-04T05:47:46;101136.97;;;4.46;65.30
26657;BME280;14279;50.010;8.260;2023-03-04T05:50:15;101133.78;;;4.16;66.17
26657;BME280;14279;50.010;8.260;2023-03-04T05:52:40;101150.19;;;4.01;65.80
26657;BME280;14279;50.010;8.260;2023-03-04T05:55:06;101133.94;;;3.91;65.74
26657;BME280;14279;50.010;8.260;2023-03-04T05:57:31;101144.09;;;4.15;64.92
26657;BME280;14279;50.010;8.260;2023-03-04T05:59:56;101138.16;;;4.03;65.07
26657;BME280;14279;50.010;8.260;2023-03-04T06:02:22;101140.66;;;4.16;64.93
26657;BME280;14279;50.010;8.260;2023-03-04T06:04:47;101133.75;;;4.21;64.25
26657;BME280;14279;50.010;8.260;2023-03-04T06:07:12;101142.28;;;4.28;64.26
26657;BME280;14279;50.010;8.260;2023-03-04T06:09:37;101137.78;;;4.55;63.35
26657;BME280;14279;50.010;8.260;2023-03-04T06:12:03;101136.97;;;4.46;63.46
26657;BME280;14279;50.010;8.260;2023-03-04T06:14:28;101145.81;;;4.17;64.14
26657;BME280;14279;50.010;8.260;2023-03-04T06:16:53;101146.63;;;4.21;64.38
26657;BME280;14279;50.010;8.260;2023-03-04T06:19:19;101149.31;;;4.07;64.56
26657;BME280;14279;50.010;8.260;2023-03-04T06:21:44;101144.88;;;4.26;63.89
26657;BME280;14279;50.010;8.260;2023-03-04T06:24:09;101152.50;;;4.43;63.89
26657;BME280;14279;50.010;8.260;2023-03-04T06:26:35;101153.59;;;4.05;63.57
26657;BME280;14279;50.010;8.260;2023-03-04T06:29:00;101160.31;;;4.28;64.12
26657;BME280;14279;50.010;8.260;2023-03-04T06:31:25;101163.75;;;4.30;63.40
26657;BME280;14279;50.010;8.260;2023-03-04T06:33:50;101165.38;;;4.43;63.76
26657;BME280;14279;50.010;8.260;2023-03-04T06:36:15;101167.22;;;4.26;64.04
26657;BME280;14279;50.010;8.260;2023-03-04T06:38:41;101164.66;;;4.22;64.12
26657;BME280;14279;50.010;8.260;2023-03-04T06:41:10;101173.16;;;4.35;63.60
26657;BME280;14279;50.010;8.260;2023-03-04T06:43:37;101168.81;;;4.41;63.68
26657;BME280;14279;50.010;8.260;2023-03-04T06:46:03;101166.09;;;4.61;63.22
26657;BME280;14279;50.010;8.260;2023-03-04T06:48:28;101171.03;;;4.84;62.28
26657;BME280;14279;50.010;8.260;2023-03-04T06:50:54;101175.41;;;4.77;62.08
26657;BME280;14279;50.010;8.260;2023-03-04T06:53:19;101175.47;;;4.70;62.51
26657;BME280;14279;50.010;8.260;2023-03-04T06:55:45;101181.22;;;4.98;61.96
26657;BME280;14279;50.010;8.260;2023-03-04T06:58:11;101188.19;;;4.91;62.12
26657;BME280;14279;50.010;8.260;2023-03-04T07:00:36;101182.38;;;4.64;62.84
26657;BME280;14279;50.010;8.260;2023-03-04T07:03:01;101181.63;;;4.55;62.81
26657;BME280;14279;50.010;8.260;2023-03-04T07:05:26;101188.94;;;5.01;61.55
26657;BME280;14279;50.010;8.260;2023-03-04T07:07:52;101185.16;;;5.36;60.52
26657;BME280;14279;50.010;8.260;2023-03-04T07:10:18;101185.34;;;5.16;61.05
26657;BME280;14279;50.010;8.260;2023-03-04T07:12:44;101186.00;;;5.38;60.47
26657;BME280;14279;50.010;8.260;2023-03-04T07:18:31;101199.25;;;5.04;61.50
26657;BME280;14279;50.010;8.260;2023-03-04T07:20:59;101201.75;;;5.12;61.38
26657;BME280;14279;50.010;8.260;2023-03-04T07:26:46;101220.22;;;4.64;61.67
26657;BME280;14279;50.010;8.260;2023-03-04T07:29:12;101203.13;;;4.52;62.45
26657;BME280;14279;50.010;8.260;2023-03-04T07:31:40;101206.53;;;4.56;62.26
26657;BME280;14279;50.010;8.260;2023-03-04T07:34:13;101209.03;;;4.68;62.18
26657;BME280;14279;50.010;8.260;2023-03-04T07:36:39;101209.03;;;4.63;62.29
26657;BME280;14279;50.010;8.260;2023-03-04T07:39:11;101209.84;;;4.72;62.22
26657;BME280;14279;50.010;8.260;2023-03-04T07:42:00;101208.13;;;4.71;62.05
26657;BME280;14279;50.010;8.260;2023-03-04T07:44:25;101217.38;;;4.96;61.51
26657;BME280;14279;50.010;8.260;2023-03-04T07:46:50;101207.22;;;4.76;61.87
26657;BME280;14279;50.010;8.260;2023-03-04T07:49:25;101210.88;;;4.50;62.15
26657;BME280;14279;50.010;8.260;2023-03-04T07:51:50;101213.34;;;4.61;62.53
26657;BME280;14279;50.010;8.260;2023-03-04T07:54:15;101212.06;;;5.14;61.23
26657;BME280;14279;50.010;8.260;2023-03-04T07:56:41;101212.28;;;4.89;61.92
26657;BME280;14279;50.010;8.260;2023-03-04T07:59:07;101215.41;;;5.22;60.90
26657;BME280;14279;50.010;8.260;2023-03-04T08:02:10;101215.66;;;4.94;61.37
26657;BME280;14279;50.010;8.260;2023-03-04T08:04:36;101212.06;;;5.12;61.36
26657;BME280;14279;50.010;8.260;2023-03-04T08:07:01;101216.56;;;4.91;61.54
26657;BME280;14279;50.010;8.260;2023-03-04T08:09:26;101210.59;;;4.83;62.31
26657;BME280;14279;50.010;8.260;2023-03-04T08:11:52;101217.56;;;4.75;62.24
26657;BME280;14279;50.010;8.260;2023-03-04T08:14:17;101218.59;;;4.55;62.62
26657;BME280;14279;50.010;8.260;2023-03-04T08:16:54;101224.63;;;4.49;62.57
26657;BME280;14279;50.010;8.260;2023-03-04T08:19:20;101220.81;;;4.97;61.61
26657;BME280;14279;50.010;8.260;2023-03-04T08:21:46;101222.63;;;4.86;61.86
26657;BME280;14279;50.010;8.260;2023-03-04T08:25:02;101227.88;;;4.73;62.16
26657;BME280;14279;50.010;8.260;2023-03-04T08:27:39;101224.41;;;4.79;62.59
26657;BME280;14279;50.010;8.260;2023-03-04T09:21:44;101228.53;;;5.02;61.28
26657;BME280;14279;50.010;8.260;2023-03-04T09:24:09;101227.75;;;4.90;62.07
26657;BME280;14279;50.010;8.260;2023-03-04T09:26:35;101240.41;;;5.18;61.09
26657;BME280;14279;50.010;8.260;2023-03-04T09:29:01;101245.41;;;5.34;60.98
26657;BME280;14279;50.010;8.260;2023-03-04T09:31:46;101232.38;;;5.45;60.25
26657;BME280;14279;50.010;8.260;2023-03-04T09:34:21;101233.25;;;5.44;60.25
26657;BME280;14279;50.010;8.260;2023-03-04T09:36:49;101235.94;;;5.34;60.98
26657;BME280;14279;50.010;8.260;2023-03-04T09:39:14;101236.66;;;5.50;60.24
26657;BME280;14279;50.010;8.260;2023-03-04T09:41:45;101237.88;;;5.90;59.21
26657;BME280;14279;50.010;8.260;2023-03-04T09:44:17;101242.44;;;5.69;59.22
26657;BME280;14279;50.010;8.260;2023-03-04T09:46:46;101239.13;;;5.56;59.76
26657;BME280;14279;50.010;8.260;2023-03-04T09:49:12;101237.97;;;5.84;59.80
26657;BME280;14279;50.010;8.260;2023-03-04T09:51:45;101236.50;;;5.64;58.95
26657;BME280;14279;50.010;8.260;2023-03-04T09:57:03;101238.19;;;5.67;59.63
26657;BME280;14279;50.010;8.260;2023-03-04T09:59:43;101229.22;;;5.96;59.79
26657;BME280;14279;50.010;8.260;2023-03-04T10:09:15;101229.78;;;5.49;59.97
26657;BME280;14279;50.010;8.260;2023-03-04T10:35:55;101224.50;;;5.57;60.68
26657;BME280;14279;50.010;8.260;2023-03-04T10:59:46;101200.03;;;5.87;59.98
26657;BME280;14279;50.010;8.260;2023-03-04T11:02:43;101204.81;;;5.48;60.87
26657;BME280;14279;50.010;8.260;2023-03-04T11:06:04;101197.72;;;5.66;60.39
26657;BME280;14279;50.010;8.260;2023-03-04T11:29:59;101184.06;;;6.23;59.30
26657;BME280;14279;50.010;8.260;2023-03-04T11:40:50;101186.94;;;6.01;60.47
26657;BME280;14279;50.010;8.260;2023-03-04T11:44:26;101177.69;;;5.85;60.58
26657;BME280;14279;50.010;8.260;2023-03-04T11:48:03;101161.28;;;5.86;60.35
26657;BME280;14279;50.010;8.260;2023-03-04T11:50:49;101169.97;;;5.80;60.91
26657;BME280;14279;50.010;8.260;2023-03-04T12:17:28;101151.84;;;5.85;59.56
26657;BME280;14279;50.010;8.260;2023-03-04T12:25:35;101132.22;;;6.32;58.46
26657;BME280;14279;50.010;8.260;2023-03-04T12:28:15;101128.19;;;6.65;58.23
26657;BME280;14279;50.010;8.260;2023-03-04T12:33:50;101126.38;;;6.71;57.58
26657;BME280;14279;50.010;8.260;2023-03-04T12:39:31;101128.25;;;6.63;57.07
26657;BME280;14279;50.010;8.260;2023-03-04T12:42:20;101116.09;;;6.68;57.19
26657;BME280;14279;50.010;8.260;2023-03-04T12:44:57;101118.53;;;6.76;56.95
26657;BME280;14279;50.010;8.260;2023-03-04T12:51:05;101103.75;;;7.27;54.85
26657;BME280;14279;50.010;8.260;2023-03-04T12:56:29;101094.38;;;7.62;54.28
26657;BME280;14279;50.010;8.260;2023-03-04T12:58:57;101105.50;;;8.06;52.58
26657;BME280;14279;50.010;8.260;2023-03-04T13:01:47;101085.13;;;7.51;53.99
26657;BME280;14279;50.010;8.260;2023-03-04T13:04:25;101082.22;;;7.65;53.64
26657;BME280;14279;50.010;8.260;2023-03-04T13:07:01;101081.41;;;7.62;54.18
26657;BME280;14279;50.010;8.260;2023-03-04T13:09:46;101070.97;;;7.66;53.86
26657;BME280;14279;50.010;8.260;2023-03-04T13:12:18;101070.03;;;8.07;52.82
26657;BME280;14279;50.010;8.260;2023-03-04T13:17:35;101068.53;;;8.31;51.83
26657;BME280;14279;50.010;8.260;2023-03-04T13:23:27;101057.47;;;7.90;52.54
26657;BME280;14279;50.010;8.260;2023-03-04T13:28:31;101046.97;;;7.58;53.74
26657;BME280;14279;50.010;8.260;2023-03-04T13:31:12;101047.84;;;7.18;55.78
26657;BME280;14279;50.010;8.260;2023-03-04T13:33:44;101045.03;;;7.29;55.01
26657;BME280;14279;50.010;8.260;2023-03-04T13:36:28;101040.28;;;7.07;55.01
26657;BME280;14279;50.010;8.260;2023-03-04T13:39:00;101042.25;;;7.36;55.69
26657;BME280;14279;50.010;8.260;2023-03-04T13:41:31;101035.19;;;7.43;55.11
26657;BME280;14279;50.010;8.260;2023-03-04T13:44:01;101031.66;;;7.85;54.50
26657;BME280;14279;50.010;8.260;2023-03-04T13:46:41;101031.78;;;7.79;54.47
26657;BME280;14279;50.010;8.260;2023-03-04T13:49:17;101034.94;;;7.92;54.27
26657;BME280;14279;50.010;8.260;2023-03-04T13:51:44;101034.06;;;7.93;54.43
26657;BME280;14279;50.010;8.260;2023-03-04T13:54:29;101037.59;;;7.52;55.25
26657;BME280;14279;50.010;8.260;2023-03-04T13:57:16;101039.25;;;7.16;56.69
26657;BME280;14279;50.010;8.260;2023-03-04T14:00:02;101034.13;;;7.54;55.95
26657;BME280;14279;50.010;8.260;2023-03-04T14:02:32;101025.25;;;7.23;56.18
26657;BME280;14279;50.010;8.260;2023-03-04T14:05:00;101029.66;;;7.19;56.52
26657;BME280;14279;50.010;8.260;2023-03-04T14:07:31;101023.94;;;7.46;56.22
26657;BME280;14279;50.010;8.260;2023-03-04T14:09:59;101017.13;;;7.42;56.22
26657;BME280;14279;50.010;8.260;2023-03-04T14:12:26;101014.97;;;7.59;55.92
26657;BME280;14279;50.010;8.260;2023-03-04T14:14:58;101025.41;;;7.56;56.09
26657;BME280;14279;50.010;8.260;2023-03-04T14:17:31;101011.94;;;7.79;56.05
26657;BME280;14279;50.010;8.260;2023-03-04T14:20:01;101009.41;;;7.39;56.33
26657;BME280;14279;50.010;8.260;2023-03-04T14:25:49;101010.63;;;7.22;57.49
26657;BME280;14279;50.010;8.260;2023-03-04T14:28:25;101004.19;;;7.40;57.08
26657;BME280;14279;50.010;8.260;2023-03-04T14:30:53;101003.03;;;7.52;56.45
26657;BME280;14279;50.010;8.260;2023-03-04T14:33:28;100992.72;;;7.50;57.18
26657;BME280;14279;50.010;8.260;2023-03-04T14:35:57;100992.91;;;7.80;56.42
26657;BME280;14279;50.010;8.260;2023-03-04T14:38:30;100991.34;;;7.73;56.36
26657;BME280;14279;50.010;8.260;2023-03-04T14:41:06;100988.53;;;7.81;56.05
26657;BME280;14279;50.010;8.260;2023-03-04T14:43:40;100987.19;;;7.66;55.94
26657;BME280;14279;50.010;8.260;2023-03-04T14:46:12;100988.06;;;7.65;56.46
26657;BME280;14279;50.010;8.260;2023-03-04T14:48:58;100983.50;;;7.76;56.60
26657;BME280;14279;50.010;8.260;2023-03-04T14:54:28;100979.53;;;7.60;56.08
26657;BME280;14279;50.010;8.260;2023-03-04T14:56:54;100977.38;;;7.41;57.00
26657;BME280;14279;50.010;8.260;2023-03-04T14:59:33;100974.09;;;7.71;56.79
26657;BME280;14279;50.010;8.260;2023-03-04T15:04:45;100963.63;;;7.75;57.11
26657;BME280;14279;50.010;8.260;2023-03-04T15:07:16;100970.06;;;7.59;58.19
26657;BME280;14279;50.010;8.260;2023-03-04T15:09:49;100970.25;;;7.87;57.21
26657;BME280;14279;50.010;8.260;2023-03-04T15:12:22;100979.13;;;7.78;57.41
26657;BME280;14279;50.010;8.260;2023-03-04T15:15:02;100975.31;;;7.92;57.36
26657;BME280;14279;50.010;8.260;2023-03-04T15:17:33;100971.81;;;7.58;58.12
26657;BME280;14279;50.010;8.260;2023-03-04T15:20:24;100966.25;;;7.74;58.38
26657;BME280;14279;50.010;8.260;2023-03-04T15:25:15;100962.47;;;7.52;58.60
26657;BME280;14279;50.010;8.260;2023-03-04T15:27:43;100965.63;;;7.98;57.48
26657;BME280;14279;50.010;8.260;2023-03-04T15:30:30;100956.69;;;7.76;57.79
26657;BME280;14279;50.010;8.260;2023-03-04T15:32:57;100964.25;;;7.49;58.52
26657;BME280;14279;50.010;8.260;2023-03-04T15:35:23;100949.91;;;7.35;59.35
26657;BME280;14279;50.010;8.260;2023-03-04T15:37:50;100952.28;;;7.45;59.47
26657;BME280;14279;50.010;8.260;2023-03-04T15:40:31;100960.56;;;7.59;59.03
26657;BME280;14279;50.010;8.260;2023-03-04T15:42:58;100956.91;;;7.68;58.88
26657;BME280;14279;50.010;8.260;2023-03-04T15:45:30;100948.44;;;7.61;58.53
26657;BME280;14279;50.010;8.260;2023-03-04T15:47:56;100953.41;;;7.69;58.57
26657;BME280;14279;50.010;8.260;2023-03-04T15:50:26;100955.88;;;7.75;58.54
26657;BME280;14279;50.010;8.260;2023-03-04T15:52:55;100955.78;;;7.78;58.25
26657;BME280;14279;50.010;8.260;2023-03-04T15:55:23;100949.75;;;7.78;58.62
26657;BME280;14279;50.010;8.260;2023-03-04T15:57:52;100949.53;;;7.86;58.54
26657;BME280;14279;50.010;8.260;2023-03-04T16:00:20;100955.47;;;7.56;59.15
26657;BME280;14279;50.010;8.260;2023-03-04T16:02:45;100955.00;;;7.75;58.41
26657;BME280;14279;50.010;8.260;2023-03-04T16:05:11;100953.28;;;7.75;58.88
26657;BME280;14279;50.010;8.260;2023-03-04T16:07:37;100946.81;;;7.92;57.92
26657;BME280;14279;50.010;8.260;2023-03-04T16:10:19;100955.81;;;7.77;58.63
26657;BME280;14279;50.010;8.260;2023-03-04T16:12:45;100949.63;;;7.82;58.17
26657;BME280;14279;50.010;8.260;2023-03-04T16:15:25;100954.72;;;7.51;59.53
26657;BME280;14279;50.010;8.260;2023-03-04T16:17:51;100952.72;;;7.62;58.99
26657;BME280;14279;50.010;8.260;2023-03-04T16:20:22;100959.25;;;7.43;59.83
26657;BME280;14279;50.010;8.260;2023-03-04T16:22:50;100954.44;;;7.62;59.44
26657;BME280;14279;50.010;8.260;2023-03-04T16:25:18;100948.28;;;7.67;59.00
26657;BME280;14279;50.010;8.260;2023-03-04T16:27:44;100942.63;;;7.51;60.00
26657;BME280;14279;50.010;8.260;2023-03-04T16:30:19;100947.72;;;7.55;59.68
26657;BME280;14279;50.010;8.260;2023-03-04T16:32:45;100939.16;;;7.52;59.84
26657;BME280;14279;50.010;8.260;2023-03-04T16:35:14;100942.72;;;7.47;60.17
26657;BME280;14279;50.010;8.260;2023-03-04T16:37:40;100937.28;;;7.21;60.75
26657;BME280;14279;50.010;8.260;2023-03-04T16:40:09;100940.44;;;7.34;60.27